sensor_id;sensor_type;location;lat;lon;timestamp;temperature;humidity
7518;DHT22;3800;48.922;9.444;2024-03-02T00:01:34;5.70;99.90
7518;DHT22;3800;48.922;9.444;2024-03-02T00:04:04;5.70;99.90
7518;DHT22;3800;48.922;9.444;2024-03-02T00:06:31;5.70;99.90
7518;DHT22;3800;48.922;9.444;2024-03-02T00:09:00;5.80;99.90
7518;DHT22;3800;48.922;9.444;2024-03-02T00:11:29;5.80;99.90
7518;DHT22;3800;48.922;9.444;2024-03-02T00:13:58;5.80;99.90
7518;DHT22;3800;48.922;9.444;2024-03-02T00:16:29;5.80;99.90
7518;DHT22;3800;48.922;9.444;2024-03-02T00:19:02;5.90;99.90
7518;DHT22;3800;48.922;9.444;2024-03-02T00:21:29;5.90;99.90
7518;DHT22;3800;48.922;9.444;2024-03-02T00:23:58;5.90;99.90
7518;DHT22;3800;48.922;9.444;2024-03-02T00:26:26;5.90;99.90
7518;DHT22;3800;48.922;9.444;2024-03-02T00:28:55;5.90;99.90
7518;DHT22;3800;48.922;9.444;2024-03-02T00:31:23;5.90;99.90
7518;DHT22;3800;48.922;9.444;2024-03-02T00:33:52;5.90;99.90
7518;DHT22;3800;48.922;9.444;2024-03-02T00:36:24;5.90;99.90
7518;DHT22;3800;48.922;9.444;2024-03-02T00:38:52;5.90;99.90
7518;DHT22;3800;48.922;9.444;2024-03-02T00:41:21;5.90;99.90
7518;DHT22;3800;48.922;9.444;2024-03-02T00:43:57;5.90;99.90
7518;DHT22;3800;48.922;9.444;2024-03-02T00:46:27;5.90;99.90
7518;DHT22;3800;48.922;9.444;2024-03-02T00:48:57;5.90;99.90
7518;DHT22;3800;48.922;9.444;2024-03-02T00:51:24;5.90;99.90
7518;DHT22;3800;48.922;9.444;2024-03-02T00:53:53;5.90;99.90
7518;DHT22;3800;48.922;9.444;2024-03-02T00:56:22;5.90;99.90
7518;DHT22;3800;48.922;9.444;2024-03-02T00:58:50;5.90;99.90
7518;DHT22;3800;48.922;9.444;2024-03-02T01:01:18;5.90;99.90
7518;DHT22;3800;48.922;9.444;2024-03-02T01:03:48;5.90;99.90
7518;DHT22;3800;48.922;9.444;2024-03-02T01:06:17;5.70;99.90
7518;DHT22;3800;48.922;9.444;2024-03-02T01:08:47;5.70;99.90
7518;DHT22;3800;48.922;9.444;2024-03-02T01:11:16;5.60;99.90
7518;DHT22;3800;48.922;9.444;2024-03-02T01:13:44;5.40;99.90
7518;DHT22;3800;48.922;9.444;2024-03-02T01:16:12;5.20;99.90
7518;DHT22;3800;48.922;9.444;2024-03-02T01:18:41;5.10;99.90
7518;DHT22;3800;48.922;9.444;2024-03-02T01:21:09;5.00;99.90
7518;DHT22;3800;48.922;9.444;2024-03-02T01:23:39;5.00;99.90
7518;DHT22;3800;48.922;9.444;2024-03-02T01:26:08;4.90;99.90
7518;DHT22;3800;48.922;9.444;2024-03-02T01:28:36;4.90;99.90
7518;DHT22;3800;48.922;9.444;2024-03-02T01:31:04;4.90;99.90
7518;DHT22;3800;48.922;9.444;2024-03-02T01:33:32;4.90;99.90
7518;DHT22;3800;48.922;9.444;2024-03-02T01:36:01;4.90;99.90
7518;DHT22;3800;48.922;9.444;2024-03-02T01:38:30;4.80;99.90
7518;DHT22;3800;48.922;9.444;2024-03-02T01:40:58;4.80;99.90
7518;DHT22;3800;48.922;9.444;2024-03-02T01:43:26;4.80;99.90
7518;DHT22;3800;48.922;9.444;2024-03-02T01:45:55;4.80;99.90
7518;DHT22;3800;48.922;9.444;2024-03-02T01:48:24;4.80;99.90
7518;DHT22;3800;48.922;9.444;2024-03-02T01:50:52;4.70;99.90
7518;DHT22;3800;48.922;9.444;2024-03-02T01:53:20;4.70;99.90
7518;DHT22;3800;48.922;9.444;2024-03-02T01:55:48;4.70;99.90
7518;DHT22;3800;48.922;9.444;2024-03-02T01:58:17;4.70;99.90
7518;DHT22;3800;48.922;9.444;2024-03-02T02:00:45;4.70;99.90
7518;DHT22;3800;48.922;9.444;2024-03-02T02:03:13;4.80;99.90
7518;DHT22;3800;48.922;9.444;2024-03-02T02:05:42;4.70;99.90
7518;DHT22;3800;48.922;9.444;2024-03-02T02:08:11;4.80;99.90
7518;DHT22;3800;48.922;9.444;2024-03-02T02:10:39;4.80;99.90
7518;DHT22;3800;48.922;9.444;2024-03-02T02:13:07;4.70;99.90
7518;DHT22;3800;48.922;9.444;2024-03-02T02:15:35;4.60;99.90
7518;DHT22;3800;48.922;9.444;2024-03-02T02:18:04;4.60;99.90
7518;DHT22;3800;48.922;9.444;2024-03-02T02:20:32;4.60;99.90
7518;DHT22;3800;48.922;9.444;2024-03-02T02:23:01;4.60;99.90
7518;DHT22;3800;48.922;9.444;2024-03-02T02:25:29;4.60;99.90
7518;DHT22;3800;48.922;9.444;2024-03-02T02:27:57;4.50;99.90
7518;DHT22;3800;48.922;9.444;2024-03-02T02:30:28;4.50;99.90
7518;DHT22;3800;48.922;9.444;2024-03-02T02:32:55;4.50;99.90
7518;DHT22;3800;48.922;9.444;2024-03-02T02:35:24;4.40;99.90
7518;DHT22;3800;48.922;9.444;2024-03-02T02:37:54;4.30;99.90
7518;DHT22;3800;48.922;9.444;2024-03-02T02:40:22;4.20;99.90
7518;DHT22;3800;48.922;9.444;2024-03-02T02:42:50;4.10;99.90
7518;DHT22;3800;48.922;9.444;2024-03-02T02:45:20;4.10;99.90
7518;DHT22;3800;48.922;9.444;2024-03-02T02:47:48;4.10;99.90
7518;DHT22;3800;48.922;9.444;2024-03-02T02:50:16;4.10;99.90
7518;DHT22;3800;48.922;9.444;2024-03-02T02:52:45;4.10;99.90
7518;DHT22;3800;48.922;9.444;2024-03-02T02:55:13;4.10;99.90
7518;DHT22;3800;48.922;9.444;2024-03-02T02:57:41;4.10;99.90
7518;DHT22;3800;48.922;9.444;2024-03-02T03:00:11;4.20;99.90
7518;DHT22;3800;48.922;9.444;2024-03-02T03:02:42;4.10;99.90
7518;DHT22;3800;48.922;9.444;2024-03-02T03:05:12;4.00;99.90
7518;DHT22;3800;48.922;9.444;2024-03-02T03:07:40;4.00;99.90
7518;DHT22;3800;48.922;9.444;2024-03-02T03:10:08;3.90;99.90
7518;DHT22;3800;48.922;9.444;2024-03-02T03:12:37;3.90;99.90
7518;DHT22;3800;48.922;9.444;2024-03-02T03:15:07;4.00;99.90
7518;DHT22;3800;48.922;9.444;2024-03-02T03:17:36;3.90;99.90
7518;DHT22;3800;48.922;9.444;2024-03-02T03:20:05;4.00;99.90
7518;DHT22;3800;48.922;9.444;2024-03-02T03:22:33;4.00;99.90
7518;DHT22;3800;48.922;9.444;2024-03-02T03:25:02;3.90;99.90
7518;DHT22;3800;48.922;9.444;2024-03-02T03:27:30;3.90;99.90
7518;DHT22;3800;48.922;9.444;2024-03-02T03:29:58;3.90;99.90
7518;DHT22;3800;48.922;9.444;2024-03-02T03:32:28;3.90;99.90
7518;DHT22;3800;48.922;9.444;2024-03-02T03:34:56;3.90;99.90
7518;DHT22;3800;48.922;9.444;2024-03-02T03:37:25;3.90;99.90
7518;DHT22;3800;48.922;9.444;2024-03-02T03:39:54;4.00;99.90
7518;DHT22;3800;48.922;9.444;2024-03-02T03:42:23;4.00;99.90
7518;DHT22;3800;48.922;9.444;2024-03-02T03:44:52;3.90;99.90
7518;DHT22;3800;48.922;9.444;2024-03-02T03:47:20;4.00;99.90
7518;DHT22;3800;48.922;9.444;2024-03-02T03:49:48;4.00;99.90
7518;DHT22;3800;48.922;9.444;2024-03-02T03:52:17;4.00;99.90
7518;DHT22;3800;48.922;9.444;2024-03-02T03:54:47;4.00;99.90
7518;DHT22;3800;48.922;9.444;2024-03-02T03:57:16;4.00;99.90
7518;DHT22;3800;48.922;9.444;2024-03-02T03:59:44;4.00;99.90
7518;DHT22;3800;48.922;9.444;2024-03-02T04:02:13;3.90;99.90
7518;DHT22;3800;48.922;9.444;2024-03-02T04:04:41;3.90;99.90
7518;DHT22;3800;48.922;9.444;2024-03-02T04:07:09;3.80;99.90
7518;DHT22;3800;48.922;9.444;2024-03-02T04:09:39;3.70;99.90
7518;DHT22;3800;48.922;9.444;2024-03-02T04:12:07;3.60;99.90
7518;DHT22;3800;48.922;9.444;2024-03-02T04:14:35;3.60;99.90
7518;DHT22;3800;48.922;9.444;2024-03-02T04:17:04;3.60;99.90
7518;DHT22;3800;48.922;9.444;2024-03-02T04:19:32;3.60;99.90
7518;DHT22;3800;48.922;9.444;2024-03-02T04:22:01;3.60;99.90
7518;DHT22;3800;48.922;9.444;2024-03-02T04:24:30;3.60;99.90
7518;DHT22;3800;48.922;9.444;2024-03-02T04:26:58;3.60;99.90
7518;DHT22;3800;48.922;9.444;2024-03-02T04:29:28;3.60;99.90
7518;DHT22;3800;48.922;9.444;2024-03-02T04:31:57;3.60;99.90
7518;DHT22;3800;48.922;9.444;2024-03-02T04:34:25;3.60;99.90
7518;DHT22;3800;48.922;9.444;2024-03-02T04:36:55;3.60;99.90
7518;DHT22;3800;48.922;9.444;2024-03-02T04:39:23;3.60;99.90
7518;DHT22;3800;48.922;9.444;2024-03-02T04:41:52;3.60;99.90
7518;DHT22;3800;48.922;9.444;2024-03-02T04:44:20;3.60;99.90
7518;DHT22;3800;48.922;9.444;2024-03-02T04:46:49;3.60;99.90
7518;DHT22;3800;48.922;9.444;2024-03-02T04:49:17;3.60;99.90
7518;DHT22;3800;48.922;9.444;2024-03-02T04:51:45;3.60;99.90
7518;DHT22;3800;48.922;9.444;2024-03-02T04:54:14;3.50;99.90
7518;DHT22;3800;48.922;9.444;2024-03-02T04:56:43;3.60;99.90
7518;DHT22;3800;48.922;9.444;2024-03-02T04:59:12;3.60;99.90
7518;DHT22;3800;48.922;9.444;2024-03-02T05:01:40;3.50;99.90
7518;DHT22;3800;48.922;9.444;2024-03-02T05:04:09;3.50;99.90
7518;DHT22;3800;48.922;9.444;2024-03-02T05:06:38;3.50;99.90
7518;DHT22;3800;48.922;9.444;2024-03-02T05:09:07;3.40;99.90
7518;DHT22;3800;48.922;9.444;2024-03-02T05:11:36;3.30;99.90
7518;DHT22;3800;48.922;9.444;2024-03-02T05:14:20;3.30;99.90
7518;DHT22;3800;48.922;9.444;2024-03-02T05:16:48;3.30;99.90
7518;DHT22;3800;48.922;9.444;2024-03-02T05:19:16;3.20;99.90
7518;DHT22;3800;48.922;9.444;2024-03-02T05:21:46;3.20;99.90
7518;DHT22;3800;48.922;9.444;2024-03-02T05:24:14;3.10;99.90
7518;DHT22;3800;48.922;9.444;2024-03-02T05:26:43;3.20;99.90
7518;DHT22;3800;48.922;9.444;2024-03-02T05:29:12;3.10;99.90
7518;DHT22;3800;48.922;9.444;2024-03-02T05:31:40;3.20;99.90
7518;DHT22;3800;48.922;9.444;2024-03-02T05:34:09;3.10;99.90
7518;DHT22;3800;48.922;9.444;2024-03-02T05:36:37;3.10;99.90
7518;DHT22;3800;48.922;9.444;2024-03-02T05:39:05;3.10;99.90
7518;DHT22;3800;48.922;9.444;2024-03-02T05:41:33;3.10;99.90
7518;DHT22;3800;48.922;9.444;2024-03-02T05:44:02;3.00;99.90
7518;DHT22;3800;48.922;9.444;2024-03-02T05:46:30;3.00;99.90
7518;DHT22;3800;48.922;9.444;2024-03-02T05:48:59;3.00;99.90
7518;DHT22;3800;48.922;9.444;2024-03-02T05:51:27;3.00;99.90
7518;DHT22;3800;48.922;9.444;2024-03-02T05:53:57;3.00;99.90
7518;DHT22;3800;48.922;9.444;2024-03-02T05:56:25;2.90;99.90
7518;DHT22;3800;48.922;9.444;2024-03-02T05:58:53;3.00;99.90
7518;DHT22;3800;48.922;9.444;2024-03-02T06:01:27;3.00;99.90
7518;DHT22;3800;48.922;9.444;2024-03-02T06:03:56;3.00;99.90
7518;DHT22;3800;48.922;9.444;2024-03-02T06:06:24;3.00;99.90
7518;DHT22;3800;48.922;9.444;2024-03-02T06:08:53;2.90;99.90
7518;DHT22;3800;48.922;9.444;2024-03-02T06:11:21;2.90;99.90
7518;DHT22;3800;48.922;9.444;2024-03-02T06:13:49;2.90;99.90
7518;DHT22;3800;48.922;9.444;2024-03-02T06:16:18;2.90;99.90
7518;DHT22;3800;48.922;9.444;2024-03-02T06:18:46;2.90;99.90
7518;DHT22;3800;48.922;9.444;2024-03-02T06:21:15;2.80;99.90
7518;DHT22;3800;48.922;9.444;2024-03-02T06:23:43;2.80;99.90
7518;DHT22;3800;48.922;9.444;2024-03-02T06:26:11;2.90;99.90
7518;DHT22;3800;48.922;9.444;2024-03-02T06:28:40;2.90;99.90
7518;DHT22;3800;48.922;9.444;2024-03-02T06:31:09;2.90;99.90
7518;DHT22;3800;48.922;9.444;2024-03-02T06:33:38;2.90;99.90
7518;DHT22;3800;48.922;9.444;2024-03-02T06:36:07;2.80;99.90
7518;DHT22;3800;48.922;9.444;2024-03-02T06:38:36;2.80;99.90
7518;DHT22;3800;48.922;9.444;2024-03-02T06:41:05;2.80;99.90
7518;DHT22;3800;48.922;9.444;2024-03-02T06:43:33;2.80;99.90
7518;DHT22;3800;48.922;9.444;2024-03-02T06:46:01;2.80;99.90
7518;DHT22;3800;48.922;9.444;2024-03-02T06:48:30;2.80;99.90
7518;DHT22;3800;48.922;9.444;2024-03-02T06:50:58;2.80;99.90
7518;DHT22;3800;48.922;9.444;2024-03-02T06:53:26;2.80;99.90
7518;DHT22;3800;48.922;9.444;2024-03-02T06:55:55;2.80;99.90
7518;DHT22;3800;48.922;9.444;2024-03-02T06:58:23;2.80;99.90
7518;DHT22;3800;48.922;9.444;2024-03-02T07:00:52;2.80;99.90
7518;DHT22;3800;48.922;9.444;2024-03-02T07:03:21;2.70;99.90
7518;DHT22;3800;48.922;9.444;2024-03-02T07:05:49;2.80;99.90
7518;DHT22;3800;48.922;9.444;2024-03-02T07:08:17;2.80;99.90
7518;DHT22;3800;48.922;9.444;2024-03-02T07:10:46;2.80;99.90
7518;DHT22;3800;48.922;9.444;2024-03-02T07:13:14;2.90;99.90
7518;DHT22;3800;48.922;9.444;2024-03-02T07:15:42;2.90;99.90
7518;DHT22;3800;48.922;9.444;2024-03-02T07:18:25;3.00;99.90
7518;DHT22;3800;48.922;9.444;2024-03-02T07:20:55;3.10;99.90
7518;DHT22;3800;48.922;9.444;2024-03-02T07:23:23;3.00;99.90
7518;DHT22;3800;48.922;9.444;2024-03-02T07:25:51;3.10;99.90
7518;DHT22;3800;48.922;9.444;2024-03-02T07:28:20;3.20;99.90
7518;DHT22;3800;48.922;9.444;2024-03-02T07:31:07;3.30;99.90
7518;DHT22;3800;48.922;9.444;2024-03-02T07:33:35;3.30;99.90
7518;DHT22;3800;48.922;9.444;2024-03-02T07:36:04;3.40;99.90
7518;DHT22;3800;48.922;9.444;2024-03-02T07:38:32;3.50;99.90
7518;DHT22;3800;48.922;9.444;2024-03-02T07:41:01;3.60;99.90
7518;DHT22;3800;48.922;9.444;2024-03-02T07:43:30;3.70;99.90
7518;DHT22;3800;48.922;9.444;2024-03-02T07:45:58;3.80;99.90
7518;DHT22;3800;48.922;9.444;2024-03-02T07:48:26;3.90;99.90
7518;DHT22;3800;48.922;9.444;2024-03-02T07:50:54;4.10;99.90
7518;DHT22;3800;48.922;9.444;2024-03-02T07:53:23;4.20;99.90
7518;DHT22;3800;48.922;9.444;2024-03-02T07:55:51;4.40;99.90
7518;DHT22;3800;48.922;9.444;2024-03-02T07:58:20;4.60;99.90
7518;DHT22;3800;48.922;9.444;2024-03-02T08:00:49;4.60;99.90
7518;DHT22;3800;48.922;9.444;2024-03-02T08:03:17;4.70;99.90
7518;DHT22;3800;48.922;9.444;2024-03-02T08:05:46;5.00;99.90
7518;DHT22;3800;48.922;9.444;2024-03-02T08:08:14;5.00;99.90
7518;DHT22;3800;48.922;9.444;2024-03-02T08:10:42;5.20;99.90
7518;DHT22;3800;48.922;9.444;2024-03-02T08:13:11;5.30;99.90
7518;DHT22;3800;48.922;9.444;2024-03-02T08:15:39;5.50;99.90
7518;DHT22;3800;48.922;9.444;2024-03-02T08:18:08;5.60;99.90
7518;DHT22;3800;48.922;9.444;2024-03-02T08:20:38;5.80;99.90
7518;DHT22;3800;48.922;9.444;2024-03-02T08:23:06;6.00;99.90
7518;DHT22;3800;48.922;9.444;2024-03-02T08:25:35;6.10;99.90
7518;DHT22;3800;48.922;9.444;2024-03-02T08:28:03;6.20;99.90
7518;DHT22;3800;48.922;9.444;2024-03-02T08:30:32;6.40;99.90
7518;DHT22;3800;48.922;9.444;2024-03-02T08:33:00;6.50;99.90
7518;DHT22;3800;48.922;9.444;2024-03-02T08:35:29;6.70;99.90
7518;DHT22;3800;48.922;9.444;2024-03-02T08:37:59;6.70;99.90
7518;DHT22;3800;48.922;9.444;2024-03-02T08:40:27;6.70;99.90
7518;DHT22;3800;48.922;9.444;2024-03-02T08:42:57;6.80;99.90
7518;DHT22;3800;48.922;9.444;2024-03-02T08:45:25;6.80;99.90
7518;DHT22;3800;48.922;9.444;2024-03-02T08:47:53;6.90;99.90
7518;DHT22;3800;48.922;9.444;2024-03-02T08:50:21;7.00;99.90
7518;DHT22;3800;48.922;9.444;2024-03-02T08:52:50;7.10;99.90
7518;DHT22;3800;48.922;9.444;2024-03-02T08:55:19;7.20;99.90
7518;DHT22;3800;48.922;9.444;2024-03-02T08:57:47;7.30;99.90
7518;DHT22;3800;48.922;9.444;2024-03-02T09:00:16;7.40;99.90
7518;DHT22;3800;48.922;9.444;2024-03-02T09:02:44;7.40;99.90
7518;DHT22;3800;48.922;9.444;2024-03-02T09:05:12;7.50;99.90
7518;DHT22;3800;48.922;9.444;2024-03-02T09:07:42;7.60;99.90
7518;DHT22;3800;48.922;9.444;2024-03-02T09:10:10;7.50;99.90
7518;DHT22;3800;48.922;9.444;2024-03-02T09:12:40;7.60;99.90
7518;DHT22;3800;48.922;9.444;2024-03-02T09:15:09;7.70;99.90
7518;DHT22;3800;48.922;9.444;2024-03-02T09:17:37;7.70;99.90
7518;DHT22;3800;48.922;9.444;2024-03-02T09:20:06;7.80;99.90
7518;DHT22;3800;48.922;9.444;2024-03-02T09:22:34;7.90;99.90
7518;DHT22;3800;48.922;9.444;2024-03-02T09:25:03;8.00;99.90
7518;DHT22;3800;48.922;9.444;2024-03-02T09:27:31;8.10;99.90
7518;DHT22;3800;48.922;9.444;2024-03-02T09:29:59;8.30;99.90
7518;DHT22;3800;48.922;9.444;2024-03-02T09:32:28;8.40;99.90
7518;DHT22;3800;48.922;9.444;2024-03-02T09:34:56;8.50;99.90
7518;DHT22;3800;48.922;9.444;2024-03-02T09:37:24;8.70;99.90
7518;DHT22;3800;48.922;9.444;2024-03-02T09:39:53;8.80;99.90
7518;DHT22;3800;48.922;9.444;2024-03-02T09:42:23;8.90;99.90
7518;DHT22;3800;48.922;9.444;2024-03-02T09:44:51;9.00;99.90
7518;DHT22;3800;48.922;9.444;2024-03-02T09:47:19;9.10;99.90
7518;DHT22;3800;48.922;9.444;2024-03-02T09:49:49;9.20;99.90
7518;DHT22;3800;48.922;9.444;2024-03-02T09:52:18;9.40;99.90
7518;DHT22;3800;48.922;9.444;2024-03-02T09:54:47;9.40;99.90
7518;DHT22;3800;48.922;9.444;2024-03-02T09:57:15;9.50;99.90
7518;DHT22;3800;48.922;9.444;2024-03-02T09:59:44;9.60;99.90
7518;DHT22;3800;48.922;9.444;2024-03-02T10:02:12;9.70;99.90
7518;DHT22;3800;48.922;9.444;2024-03-02T10:04:41;9.80;99.90
7518;DHT22;3800;48.922;9.444;2024-03-02T10:07:16;9.80;99.90
7518;DHT22;3800;48.922;9.444;2024-03-02T10:09:45;10.00;99.90
7518;DHT22;3800;48.922;9.444;2024-03-02T10:12:14;10.10;99.90
7518;DHT22;3800;48.922;9.444;2024-03-02T10:14:42;10.20;99.90
7518;DHT22;3800;48.922;9.444;2024-03-02T10:17:11;10.40;99.90
7518;DHT22;3800;48.922;9.444;2024-03-02T10:19:39;10.50;99.90
7518;DHT22;3800;48.922;9.444;2024-03-02T10:22:08;10.60;99.90
7518;DHT22;3800;48.922;9.444;2024-03-02T10:24:39;10.80;99.90
7518;DHT22;3800;48.922;9.444;2024-03-02T10:27:10;10.70;99.90
7518;DHT22;3800;48.922;9.444;2024-03-02T10:29:38;10.80;99.90
7518;DHT22;3800;48.922;9.444;2024-03-02T10:32:09;11.00;99.90
7518;DHT22;3800;48.922;9.444;2024-03-02T10:34:37;11.00;99.90
7518;DHT22;3800;48.922;9.444;2024-03-02T10:37:05;11.00;99.90
7518;DHT22;3800;48.922;9.444;2024-03-02T10:39:35;11.00;99.90
7518;DHT22;3800;48.922;9.444;2024-03-02T10:42:05;11.10;99.90
7518;DHT22;3800;48.922;9.444;2024-03-02T10:44:33;11.10;99.90
7518;DHT22;3800;48.922;9.444;2024-03-02T10:47:02;11.20;99.90
7518;DHT22;3800;48.922;9.444;2024-03-02T10:49:30;11.20;99.90
7518;DHT22;3800;48.922;9.444;2024-03-02T10:52:00;11.30;99.90
7518;DHT22;3800;48.922;9.444;2024-03-02T10:54:28;11.30;99.90
7518;DHT22;3800;48.922;9.444;2024-03-02T10:56:59;11.30;99.90
7518;DHT22;3800;48.922;9.444;2024-03-02T10:59:28;11.40;99.90
7518;DHT22;3800;48.922;9.444;2024-03-02T11:01:57;11.40;99.90
7518;DHT22;3800;48.922;9.444;2024-03-02T11:04:28;11.50;99.90
7518;DHT22;3800;48.922;9.444;2024-03-02T11:07:07;11.40;99.90
7518;DHT22;3800;48.922;9.444;2024-03-02T11:09:37;11.50;99.90
7518;DHT22;3800;48.922;9.444;2024-03-02T11:12:14;11.50;99.90
7518;DHT22;3800;48.922;9.444;2024-03-02T11:14:42;11.60;99.90
7518;DHT22;3800;48.922;9.444;2024-03-02T11:17:11;11.60;99.90
7518;DHT22;3800;48.922;9.444;2024-03-02T11:19:40;11.70;99.90
7518;DHT22;3800;48.922;9.444;2024-03-02T11:22:08;11.80;99.90
7518;DHT22;3800;48.922;9.444;2024-03-02T11:24:36;12.00;99.90
7518;DHT22;3800;48.922;9.444;2024-03-02T11:27:06;12.10;99.90
7518;DHT22;3800;48.922;9.444;2024-03-02T11:29:43;12.10;99.90
7518;DHT22;3800;48.922;9.444;2024-03-02T11:32:17;12.10;99.90
7518;DHT22;3800;48.922;9.444;2024-03-02T11:34:46;12.20;99.90
7518;DHT22;3800;48.922;9.444;2024-03-02T11:37:14;12.10;99.90
7518;DHT22;3800;48.922;9.444;2024-03-02T11:39:44;12.20;99.90
7518;DHT22;3800;48.922;9.444;2024-03-02T11:42:14;12.20;99.90
7518;DHT22;3800;48.922;9.444;2024-03-02T11:44:45;12.30;99.90
7518;DHT22;3800;48.922;9.444;2024-03-02T11:47:13;12.30;99.90
7518;DHT22;3800;48.922;9.444;2024-03-02T11:49:49;12.40;99.90
7518;DHT22;3800;48.922;9.444;2024-03-02T11:52:17;12.30;99.90
7518;DHT22;3800;48.922;9.444;2024-03-02T11:54:45;12.40;99.90
7518;DHT22;3800;48.922;9.444;2024-03-02T11:57:18;12.70;99.90
7518;DHT22;3800;48.922;9.444;2024-03-02T11:59:45;12.70;99.90
7518;DHT22;3800;48.922;9.444;2024-03-02T12:02:16;12.80;99.90
7518;DHT22;3800;48.922;9.444;2024-03-02T12:04:44;12.90;99.90
7518;DHT22;3800;48.922;9.444;2024-03-02T12:07:19;13.00;99.90
7518;DHT22;3800;48.922;9.444;2024-03-02T12:09:48;13.10;99.90
7518;DHT22;3800;48.922;9.444;2024-03-02T12:12:17;13.10;99.90
7518;DHT22;3800;48.922;9.444;2024-03-02T12:14:50;13.20;99.90
7518;DHT22;3800;48.922;9.444;2024-03-02T12:17:18;13.20;99.90
7518;DHT22;3800;48.922;9.444;2024-03-02T12:19:46;13.30;99.90
7518;DHT22;3800;48.922;9.444;2024-03-02T12:22:14;13.30;99.90
7518;DHT22;3800;48.922;9.444;2024-03-02T12:24:44;13.40;99.90
7518;DHT22;3800;48.922;9.444;2024-03-02T12:27:12;13.40;99.90
7518;DHT22;3800;48.922;9.444;2024-03-02T12:29:41;13.50;99.90
7518;DHT22;3800;48.922;9.444;2024-03-02T12:32:10;13.50;99.90
7518;DHT22;3800;48.922;9.444;2024-03-02T12:34:39;13.60;99.90
7518;DHT22;3800;48.922;9.444;2024-03-02T12:37:15;13.70;99.90
7518;DHT22;3800;48.922;9.444;2024-03-02T12:39:46;13.60;99.90
7518;DHT22;3800;48.922;9.444;2024-03-02T12:42:20;13.70;99.90
7518;DHT22;3800;48.922;9.444;2024-03-02T12:44:51;13.80;99.90
7518;DHT22;3800;48.922;9.444;2024-03-02T12:47:22;13.80;99.90
7518;DHT22;3800;48.922;9.444;2024-03-02T12:49:50;13.90;99.90
7518;DHT22;3800;48.922;9.444;2024-03-02T12:52:18;14.00;99.90
7518;DHT22;3800;48.922;9.444;2024-03-02T12:54:47;14.10;99.90
7518;DHT22;3800;48.922;9.444;2024-03-02T12:57:18;14.10;99.90
7518;DHT22;3800;48.922;9.444;2024-03-02T12:59:46;14.20;99.90
7518;DHT22;3800;48.922;9.444;2024-03-02T13:02:17;14.30;99.90
7518;DHT22;3800;48.922;9.444;2024-03-02T13:04:52;14.20;99.90
7518;DHT22;3800;48.922;9.444;2024-03-02T13:07:21;14.30;99.90
7518;DHT22;3800;48.922;9.444;2024-03-02T13:09:55;14.30;99.90
7518;DHT22;3800;48.922;9.444;2024-03-02T13:12:23;14.30;99.90
7518;DHT22;3800;48.922;9.444;2024-03-02T13:14:52;14.40;99.90
7518;DHT22;3800;48.922;9.444;2024-03-02T13:17:20;14.50;99.90
7518;DHT22;3800;48.922;9.444;2024-03-02T13:19:55;14.50;99.90
7518;DHT22;3800;48.922;9.444;2024-03-02T13:22:24;14.50;99.90
7518;DHT22;3800;48.922;9.444;2024-03-02T13:24:53;14.60;99.90
7518;DHT22;3800;48.922;9.444;2024-03-02T13:27:22;14.70;99.90
7518;DHT22;3800;48.922;9.444;2024-03-02T13:29:52;14.70;99.90
7518;DHT22;3800;48.922;9.444;2024-03-02T13:32:20;14.70;99.90
7518;DHT22;3800;48.922;9.444;2024-03-02T13:34:49;14.80;99.90
7518;DHT22;3800;48.922;9.444;2024-03-02T13:37:18;14.80;99.90
7518;DHT22;3800;48.922;9.444;2024-03-02T13:39:46;14.80;99.90
7518;DHT22;3800;48.922;9.444;2024-03-02T13:42:15;14.70;99.90
7518;DHT22;3800;48.922;9.444;2024-03-02T13:44:44;14.80;99.90
7518;DHT22;3800;48.922;9.444;2024-03-02T13:47:14;14.80;99.90
7518;DHT22;3800;48.922;9.444;2024-03-02T13:49:42;14.80;99.90
7518;DHT22;3800;48.922;9.444;2024-03-02T13:52:11;14.90;99.90
7518;DHT22;3800;48.922;9.444;2024-03-02T13:54:43;14.90;99.90
7518;DHT22;3800;48.922;9.444;2024-03-02T13:57:12;15.00;99.90
7518;DHT22;3800;48.922;9.444;2024-03-02T13:59:41;15.00;99.90
7518;DHT22;3800;48.922;9.444;2024-03-02T14:02:09;15.00;99.90
7518;DHT22;3800;48.922;9.444;2024-03-02T14:04:37;15.10;99.90
7518;DHT22;3800;48.922;9.444;2024-03-02T14:07:06;15.10;99.90
7518;DHT22;3800;48.922;9.444;2024-03-02T14:09:35;15.10;99.90
7518;DHT22;3800;48.922;9.444;2024-03-02T14:12:05;15.00;99.90
7518;DHT22;3800;48.922;9.444;2024-03-02T14:14:33;15.00;99.90
7518;DHT22;3800;48.922;9.444;2024-03-02T14:17:01;15.00;99.90
7518;DHT22;3800;48.922;9.444;2024-03-02T14:19:32;15.00;99.90
7518;DHT22;3800;48.922;9.444;2024-03-02T14:22:01;15.00;99.90
7518;DHT22;3800;48.922;9.444;2024-03-02T14:24:31;15.00;99.90
7518;DHT22;3800;48.922;9.444;2024-03-02T14:27:01;15.10;99.90
7518;DHT22;3800;48.922;9.444;2024-03-02T14:29:30;15.20;99.90
7518;DHT22;3800;48.922;9.444;2024-03-02T14:31:58;15.20;99.90
7518;DHT22;3800;48.922;9.444;2024-03-02T14:34:27;15.30;99.90
7518;DHT22;3800;48.922;9.444;2024-03-02T14:36:56;15.30;99.90
7518;DHT22;3800;48.922;9.444;2024-03-02T14:39:25;15.30;99.90
7518;DHT22;3800;48.922;9.444;2024-03-02T14:41:54;15.30;99.90
7518;DHT22;3800;48.922;9.444;2024-03-02T14:46:48;15.40;99.90
7518;DHT22;3800;48.922;9.444;2024-03-02T14:49:17;15.40;99.90
7518;DHT22;3800;48.922;9.444;2024-03-02T14:51:45;15.40;99.90
7518;DHT22;3800;48.922;9.444;2024-03-02T14:54:14;15.40;99.90
7518;DHT22;3800;48.922;9.444;2024-03-02T14:56:44;15.30;99.90
7518;DHT22;3800;48.922;9.444;2024-03-02T14:59:13;15.20;99.90
7518;DHT22;3800;48.922;9.444;2024-03-02T15:01:41;15.20;99.90
7518;DHT22;3800;48.922;9.444;2024-03-02T15:04:09;15.20;99.90
7518;DHT22;3800;48.922;9.444;2024-03-02T15:06:38;15.20;99.90
7518;DHT22;3800;48.922;9.444;2024-03-02T15:09:07;15.10;99.90
7518;DHT22;3800;48.922;9.444;2024-03-02T15:11:36;15.10;99.90
7518;DHT22;3800;48.922;9.444;2024-03-02T15:14:05;15.10;99.90
7518;DHT22;3800;48.922;9.444;2024-03-02T15:16:33;15.00;99.90
7518;DHT22;3800;48.922;9.444;2024-03-02T15:19:02;15.00;99.90
7518;DHT22;3800;48.922;9.444;2024-03-02T15:21:30;14.90;99.90
7518;DHT22;3800;48.922;9.444;2024-03-02T15:23:58;14.90;99.90
7518;DHT22;3800;48.922;9.444;2024-03-02T15:26:27;14.80;99.90
7518;DHT22;3800;48.922;9.444;2024-03-02T15:28:55;14.80;99.90
7518;DHT22;3800;48.922;9.444;2024-03-02T15:31:23;14.80;99.90
7518;DHT22;3800;48.922;9.444;2024-03-02T15:33:52;14.70;99.90
7518;DHT22;3800;48.922;9.444;2024-03-02T15:36:20;14.70;99.90
7518;DHT22;3800;48.922;9.444;2024-03-02T15:38:48;14.70;99.90
7518;DHT22;3800;48.922;9.444;2024-03-02T15:41:16;14.50;99.90
7518;DHT22;3800;48.922;9.444;2024-03-02T15:43:45;14.40;99.90
7518;DHT22;3800;48.922;9.444;2024-03-02T15:46:14;14.30;99.90
7518;DHT22;3800;48.922;9.444;2024-03-02T15:48:42;14.20;99.90
7518;DHT22;3800;48.922;9.444;2024-03-02T15:51:10;14.10;99.90
7518;DHT22;3800;48.922;9.444;2024-03-02T15:53:38;14.00;99.90
7518;DHT22;3800;48.922;9.444;2024-03-02T15:56:07;13.80;99.90
7518;DHT22;3800;48.922;9.444;2024-03-02T15:58:35;13.70;99.90
7518;DHT22;3800;48.922;9.444;2024-03-02T16:01:04;13.60;99.90
7518;DHT22;3800;48.922;9.444;2024-03-02T16:03:32;13.50;99.90
7518;DHT22;3800;48.922;9.444;2024-03-02T16:06:01;13.40;99.90
7518;DHT22;3800;48.922;9.444;2024-03-02T16:08:31;13.40;99.90
7518;DHT22;3800;48.922;9.444;2024-03-02T16:10:59;13.30;99.90
7518;DHT22;3800;48.922;9.444;2024-03-02T16:13:27;13.20;99.90
7518;DHT22;3800;48.922;9.444;2024-03-02T16:15:56;13.10;99.90
7518;DHT22;3800;48.922;9.444;2024-03-02T16:18:24;13.10;99.90
7518;DHT22;3800;48.922;9.444;2024-03-02T16:20:52;13.00;99.90
7518;DHT22;3800;48.922;9.444;2024-03-02T16:23:22;12.80;99.90
7518;DHT22;3800;48.922;9.444;2024-03-02T16:25:50;12.80;99.90